Genoa Bluff, Iowa
Current Conditions -  °F | °C
As of 12:52 PM on Thursday 30 Oct 2014 (Local Time) from KCID Reporting Station
Clear Clear  
Wind Chill: 53°   Ceiling: Unl
Heat Index: 53°   Visibility: 10mi
Dew Point: 38°   Wind: 10mph
Humidity: 57%   Direction: 120°ESE
Pressure: 30.04"   Gusts: NA
Location:  41.7846°N, 92.1025°W
Report Text: KCID 301752Z 12009KT 10SM CLR 12/03 A3004 RMK AO2 SLP176 60000 T01170033 10122 20022 58008
Loading
Personal Weather Stations






























Interactive Weather Map
Tropical Storm Tracking
New forecast layout! Learn more

10-Day Weather Forecast

Advertisements
Track Severe Weather on mobile